sensor_id;sensor_type;location;lat;lon;timestamp;temperature;humidity
20319;DHT22;10317;47.254;11.314;2023-10-19T00:00:36;9.40;99.90
20319;DHT22;10317;47.254;11.314;2023-10-19T00:03:05;9.40;99.90
20319;DHT22;10317;47.254;11.314;2023-10-19T00:05:35;9.40;99.90
20319;DHT22;10317;47.254;11.314;2023-10-19T00:08:05;9.40;99.90
20319;DHT22;10317;47.254;11.314;2023-10-19T00:10:41;9.40;99.90
20319;DHT22;10317;47.254;11.314;2023-10-19T00:13:11;9.40;99.90
20319;DHT22;10317;47.254;11.314;2023-10-19T00:15:39;9.40;99.90
20319;DHT22;10317;47.254;11.314;2023-10-19T00:18:14;9.50;99.90
20319;DHT22;10317;47.254;11.314;2023-10-19T00:20:47;9.40;99.90
20319;DHT22;10317;47.254;11.314;2023-10-19T00:23:39;9.40;99.90
20319;DHT22;10317;47.254;11.314;2023-10-19T00:26:05;9.40;99.90
20319;DHT22;10317;47.254;11.314;2023-10-19T00:28:34;9.50;99.90
20319;DHT22;10317;47.254;11.314;2023-10-19T00:31:05;9.50;99.90
20319;DHT22;10317;47.254;11.314;2023-10-19T00:33:34;9.50;99.90
20319;DHT22;10317;47.254;11.314;2023-10-19T00:36:07;9.50;99.90
20319;DHT22;10317;47.254;11.314;2023-10-19T00:38:37;9.50;99.90
20319;DHT22;10317;47.254;11.314;2023-10-19T00:41:08;9.60;99.90
20319;DHT22;10317;47.254;11.314;2023-10-19T00:43:34;9.60;99.90
20319;DHT22;10317;47.254;11.314;2023-10-19T00:46:05;9.50;99.90
20319;DHT22;10317;47.254;11.314;2023-10-19T00:48:59;9.50;99.90
20319;DHT22;10317;47.254;11.314;2023-10-19T00:51:37;9.50;99.90
20319;DHT22;10317;47.254;11.314;2023-10-19T00:54:17;9.50;99.90
20319;DHT22;10317;47.254;11.314;2023-10-19T00:56:57;9.50;99.90
20319;DHT22;10317;47.254;11.314;2023-10-19T00:59:26;9.50;99.90
20319;DHT22;10317;47.254;11.314;2023-10-19T01:02:01;9.50;99.90
20319;DHT22;10317;47.254;11.314;2023-10-19T01:04:51;9.60;99.90
20319;DHT22;10317;47.254;11.314;2023-10-19T01:07:33;9.60;99.90
20319;DHT22;10317;47.254;11.314;2023-10-19T01:10:03;9.60;99.90
20319;DHT22;10317;47.254;11.314;2023-10-19T01:12:31;9.60;99.90
20319;DHT22;10317;47.254;11.314;2023-10-19T01:17:51;9.60;99.90
20319;DHT22;10317;47.254;11.314;2023-10-19T01:20:27;9.60;99.90
20319;DHT22;10317;47.254;11.314;2023-10-19T01:23:00;9.60;99.90
20319;DHT22;10317;47.254;11.314;2023-10-19T01:28:26;9.70;99.90
20319;DHT22;10317;47.254;11.314;2023-10-19T01:31:12;9.70;99.90
20319;DHT22;10317;47.254;11.314;2023-10-19T01:33:43;9.70;99.90
20319;DHT22;10317;47.254;11.314;2023-10-19T01:36:10;9.60;99.90
20319;DHT22;10317;47.254;11.314;2023-10-19T01:38:36;9.60;99.90
20319;DHT22;10317;47.254;11.314;2023-10-19T01:41:03;9.60;99.90
20319;DHT22;10317;47.254;11.314;2023-10-19T01:43:40;9.60;99.90
20319;DHT22;10317;47.254;11.314;2023-10-19T01:46:06;9.60;99.90
20319;DHT22;10317;47.254;11.314;2023-10-19T01:48:42;9.60;99.90
20319;DHT22;10317;47.254;11.314;2023-10-19T01:51:10;9.60;99.90
20319;DHT22;10317;47.254;11.314;2023-10-19T01:53:40;9.70;99.90
20319;DHT22;10317;47.254;11.314;2023-10-19T01:56:08;9.70;99.90
20319;DHT22;10317;47.254;11.314;2023-10-19T01:58:39;9.70;99.90
20319;DHT22;10317;47.254;11.314;2023-10-19T02:01:09;9.70;99.90
20319;DHT22;10317;47.254;11.314;2023-10-19T02:03:38;9.70;99.90
20319;DHT22;10317;47.254;11.314;2023-10-19T02:06:08;9.70;99.90
20319;DHT22;10317;47.254;11.314;2023-10-19T02:08:52;9.70;99.90
20319;DHT22;10317;47.254;11.314;2023-10-19T02:11:22;9.60;99.90
20319;DHT22;10317;47.254;11.314;2023-10-19T02:13:50;9.60;99.90
20319;DHT22;10317;47.254;11.314;2023-10-19T02:16:17;9.60;99.90
20319;DHT22;10317;47.254;11.314;2023-10-19T02:18:46;9.60;99.90
20319;DHT22;10317;47.254;11.314;2023-10-19T02:21:12;9.60;99.90
20319;DHT22;10317;47.254;11.314;2023-10-19T02:23:39;9.70;99.90
20319;DHT22;10317;47.254;11.314;2023-10-19T02:26:07;9.70;99.90
20319;DHT22;10317;47.254;11.314;2023-10-19T02:28:33;9.70;99.90
20319;DHT22;10317;47.254;11.314;2023-10-19T02:31:04;9.70;99.90
20319;DHT22;10317;47.254;11.314;2023-10-19T02:33:45;9.70;99.90
20319;DHT22;10317;47.254;11.314;2023-10-19T02:36:13;9.60;99.90
20319;DHT22;10317;47.254;11.314;2023-10-19T02:38:45;9.70;99.90
20319;DHT22;10317;47.254;11.314;2023-10-19T02:41:17;9.70;99.90
20319;DHT22;10317;47.254;11.314;2023-10-19T02:43:45;9.70;99.90
20319;DHT22;10317;47.254;11.314;2023-10-19T02:46:26;9.80;99.90
20319;DHT22;10317;47.254;11.314;2023-10-19T02:48:52;9.70;99.90
20319;DHT22;10317;47.254;11.314;2023-10-19T02:51:17;9.80;99.90
20319;DHT22;10317;47.254;11.314;2023-10-19T02:53:44;9.70;99.90
20319;DHT22;10317;47.254;11.314;2023-10-19T02:56:14;9.70;99.90
20319;DHT22;10317;47.254;11.314;2023-10-19T02:58:46;9.80;99.90
20319;DHT22;10317;47.254;11.314;2023-10-19T03:01:20;9.80;99.90
20319;DHT22;10317;47.254;11.314;2023-10-19T03:03:55;9.80;99.90
20319;DHT22;10317;47.254;11.314;2023-10-19T03:06:28;9.80;99.90
20319;DHT22;10317;47.254;11.314;2023-10-19T03:09:04;9.80;99.90
20319;DHT22;10317;47.254;11.314;2023-10-19T03:11:41;9.90;99.90
20319;DHT22;10317;47.254;11.314;2023-10-19T03:14:08;9.80;99.90
20319;DHT22;10317;47.254;11.314;2023-10-19T03:16:37;9.90;99.90
20319;DHT22;10317;47.254;11.314;2023-10-19T03:19:05;9.90;99.90
20319;DHT22;10317;47.254;11.314;2023-10-19T03:21:33;9.90;99.90
20319;DHT22;10317;47.254;11.314;2023-10-19T03:24:07;9.90;99.90
20319;DHT22;10317;47.254;11.314;2023-10-19T03:26:38;9.90;99.90
20319;DHT22;10317;47.254;11.314;2023-10-19T03:29:05;10.00;99.90
20319;DHT22;10317;47.254;11.314;2023-10-19T03:31:39;10.00;99.90
20319;DHT22;10317;47.254;11.314;2023-10-19T03:34:13;10.00;99.90
20319;DHT22;10317;47.254;11.314;2023-10-19T03:36:42;10.00;99.90
20319;DHT22;10317;47.254;11.314;2023-10-19T03:39:08;10.00;99.90
20319;DHT22;10317;47.254;11.314;2023-10-19T03:41:41;10.10;99.90
20319;DHT22;10317;47.254;11.314;2023-10-19T03:44:13;10.00;99.90
20319;DHT22;10317;47.254;11.314;2023-10-19T03:46:50;10.00;99.90
20319;DHT22;10317;47.254;11.314;2023-10-19T03:49:21;10.00;99.90
20319;DHT22;10317;47.254;11.314;2023-10-19T03:51:48;10.00;99.90
20319;DHT22;10317;47.254;11.314;2023-10-19T03:54:32;10.00;99.90
20319;DHT22;10317;47.254;11.314;2023-10-19T03:56:58;10.00;99.90
20319;DHT22;10317;47.254;11.314;2023-10-19T03:59:29;10.00;99.90
20319;DHT22;10317;47.254;11.314;2023-10-19T04:02:00;10.00;99.90
20319;DHT22;10317;47.254;11.314;2023-10-19T04:04:26;10.10;99.90
20319;DHT22;10317;47.254;11.314;2023-10-19T04:06:55;10.10;99.90
20319;DHT22;10317;47.254;11.314;2023-10-19T04:09:24;10.10;99.90
20319;DHT22;10317;47.254;11.314;2023-10-19T04:11:57;10.10;99.90
20319;DHT22;10317;47.254;11.314;2023-10-19T04:14:23;10.10;99.90
20319;DHT22;10317;47.254;11.314;2023-10-19T04:16:49;10.00;99.90
20319;DHT22;10317;47.254;11.314;2023-10-19T04:19:15;10.10;99.90
20319;DHT22;10317;47.254;11.314;2023-10-19T04:21:44;10.10;99.90
20319;DHT22;10317;47.254;11.314;2023-10-19T04:24:12;10.10;99.90
20319;DHT22;10317;47.254;11.314;2023-10-19T04:26:38;10.10;99.90
20319;DHT22;10317;47.254;11.314;2023-10-19T04:29:05;10.10;99.90
20319;DHT22;10317;47.254;11.314;2023-10-19T04:31:39;10.10;99.90
20319;DHT22;10317;47.254;11.314;2023-10-19T04:34:20;10.10;99.90
20319;DHT22;10317;47.254;11.314;2023-10-19T04:36:50;10.10;99.90
20319;DHT22;10317;47.254;11.314;2023-10-19T04:39:18;10.10;99.90
20319;DHT22;10317;47.254;11.314;2023-10-19T04:41:46;10.10;99.90
20319;DHT22;10317;47.254;11.314;2023-10-19T04:44:14;10.10;99.90
20319;DHT22;10317;47.254;11.314;2023-10-19T04:46:41;10.10;99.90
20319;DHT22;10317;47.254;11.314;2023-10-19T04:49:07;10.00;99.90
20319;DHT22;10317;47.254;11.314;2023-10-19T04:51:33;10.00;99.90
20319;DHT22;10317;47.254;11.314;2023-10-19T04:54:01;10.10;99.90
20319;DHT22;10317;47.254;11.314;2023-10-19T04:56:27;10.10;99.90
20319;DHT22;10317;47.254;11.314;2023-10-19T04:58:53;10.10;99.90
20319;DHT22;10317;47.254;11.314;2023-10-19T05:01:19;10.10;99.90
20319;DHT22;10317;47.254;11.314;2023-10-19T05:03:44;10.20;99.90
20319;DHT22;10317;47.254;11.314;2023-10-19T05:06:10;10.20;99.90
20319;DHT22;10317;47.254;11.314;2023-10-19T05:08:37;10.20;99.90
20319;DHT22;10317;47.254;11.314;2023-10-19T05:11:02;10.20;99.90
20319;DHT22;10317;47.254;11.314;2023-10-19T05:13:31;10.20;99.90
20319;DHT22;10317;47.254;11.314;2023-10-19T05:15:58;10.10;99.90
20319;DHT22;10317;47.254;11.314;2023-10-19T05:18:25;10.10;99.90
20319;DHT22;10317;47.254;11.314;2023-10-19T05:20:52;10.10;99.90
20319;DHT22;10317;47.254;11.314;2023-10-19T05:23:24;10.10;99.90
20319;DHT22;10317;47.254;11.314;2023-10-19T05:25:59;10.10;99.90
20319;DHT22;10317;47.254;11.314;2023-10-19T05:28:25;10.10;99.90
20319;DHT22;10317;47.254;11.314;2023-10-19T05:30:51;10.20;99.90
20319;DHT22;10317;47.254;11.314;2023-10-19T05:33:17;10.20;99.90
20319;DHT22;10317;47.254;11.314;2023-10-19T05:35:47;10.20;99.90
20319;DHT22;10317;47.254;11.314;2023-10-19T05:38:12;10.30;99.90
20319;DHT22;10317;47.254;11.314;2023-10-19T05:40:38;10.40;99.90
20319;DHT22;10317;47.254;11.314;2023-10-19T05:43:05;10.40;99.90
20319;DHT22;10317;47.254;11.314;2023-10-19T05:45:31;10.40;99.90
20319;DHT22;10317;47.254;11.314;2023-10-19T05:47:57;10.50;99.90
20319;DHT22;10317;47.254;11.314;2023-10-19T05:50:24;10.60;99.90
20319;DHT22;10317;47.254;11.314;2023-10-19T05:52:50;10.60;99.90
20319;DHT22;10317;47.254;11.314;2023-10-19T05:55:17;10.60;99.90
20319;DHT22;10317;47.254;11.314;2023-10-19T05:57:43;10.60;99.90
20319;DHT22;10317;47.254;11.314;2023-10-19T06:00:11;10.60;99.90
20319;DHT22;10317;47.254;11.314;2023-10-19T06:02:45;10.70;99.90
20319;DHT22;10317;47.254;11.314;2023-10-19T06:05:12;10.70;99.90
20319;DHT22;10317;47.254;11.314;2023-10-19T06:07:38;10.70;99.90
20319;DHT22;10317;47.254;11.314;2023-10-19T06:10:04;10.80;99.90
20319;DHT22;10317;47.254;11.314;2023-10-19T06:12:33;10.80;99.90
20319;DHT22;10317;47.254;11.314;2023-10-19T06:15:00;10.80;99.90
20319;DHT22;10317;47.254;11.314;2023-10-19T06:17:28;10.90;99.90
20319;DHT22;10317;47.254;11.314;2023-10-19T06:19:55;10.90;99.90
20319;DHT22;10317;47.254;11.314;2023-10-19T06:22:21;10.90;99.90
20319;DHT22;10317;47.254;11.314;2023-10-19T06:24:47;10.90;99.90
20319;DHT22;10317;47.254;11.314;2023-10-19T06:27:12;10.90;99.90
20319;DHT22;10317;47.254;11.314;2023-10-19T06:29:38;10.90;99.90
20319;DHT22;10317;47.254;11.314;2023-10-19T06:32:04;10.90;99.90
20319;DHT22;10317;47.254;11.314;2023-10-19T06:34:30;11.00;99.90
20319;DHT22;10317;47.254;11.314;2023-10-19T06:36:55;11.00;99.90
20319;DHT22;10317;47.254;11.314;2023-10-19T06:39:21;11.00;99.90
20319;DHT22;10317;47.254;11.314;2023-10-19T06:41:47;11.00;99.90
20319;DHT22;10317;47.254;11.314;2023-10-19T06:44:15;11.10;99.90
20319;DHT22;10317;47.254;11.314;2023-10-19T06:46:42;11.20;99.90
20319;DHT22;10317;47.254;11.314;2023-10-19T06:49:09;11.30;99.90
20319;DHT22;10317;47.254;11.314;2023-10-19T06:51:34;11.30;99.90
20319;DHT22;10317;47.254;11.314;2023-10-19T06:54:02;11.30;99.90
20319;DHT22;10317;47.254;11.314;2023-10-19T06:56:28;11.40;99.90
20319;DHT22;10317;47.254;11.314;2023-10-19T06:58:54;11.40;99.90
20319;DHT22;10317;47.254;11.314;2023-10-19T07:01:20;11.50;99.90
20319;DHT22;10317;47.254;11.314;2023-10-19T07:03:51;11.50;99.90
20319;DHT22;10317;47.254;11.314;2023-10-19T07:06:19;11.60;99.90
20319;DHT22;10317;47.254;11.314;2023-10-19T07:08:45;11.60;99.90
20319;DHT22;10317;47.254;11.314;2023-10-19T07:11:11;11.70;99.90
20319;DHT22;10317;47.254;11.314;2023-10-19T07:13:38;11.70;99.90
20319;DHT22;10317;47.254;11.314;2023-10-19T07:16:05;11.90;99.90
20319;DHT22;10317;47.254;11.314;2023-10-19T07:18:31;11.90;99.90
20319;DHT22;10317;47.254;11.314;2023-10-19T07:20:57;12.00;99.90
20319;DHT22;10317;47.254;11.314;2023-10-19T07:23:30;12.00;99.90
20319;DHT22;10317;47.254;11.314;2023-10-19T07:25:56;12.00;99.90
20319;DHT22;10317;47.254;11.314;2023-10-19T07:28:25;12.10;99.90
20319;DHT22;10317;47.254;11.314;2023-10-19T07:30:52;12.20;99.90
20319;DHT22;10317;47.254;11.314;2023-10-19T07:33:18;12.20;99.90
20319;DHT22;10317;47.254;11.314;2023-10-19T07:35:49;12.30;99.90
20319;DHT22;10317;47.254;11.314;2023-10-19T07:38:22;12.50;99.90
20319;DHT22;10317;47.254;11.314;2023-10-19T07:40:48;12.60;99.90
20319;DHT22;10317;47.254;11.314;2023-10-19T07:43:14;12.70;99.90
20319;DHT22;10317;47.254;11.314;2023-10-19T07:45:39;12.80;99.90
20319;DHT22;10317;47.254;11.314;2023-10-19T07:48:06;13.00;99.90
20319;DHT22;10317;47.254;11.314;2023-10-19T07:50:35;13.30;99.90
20319;DHT22;10317;47.254;11.314;2023-10-19T07:53:01;13.50;99.90
20319;DHT22;10317;47.254;11.314;2023-10-19T07:55:28;13.70;99.90
20319;DHT22;10317;47.254;11.314;2023-10-19T07:57:54;14.00;98.70
20319;DHT22;10317;47.254;11.314;2023-10-19T08:00:21;14.20;98.60
20319;DHT22;10317;47.254;11.314;2023-10-19T08:02:48;14.20;98.50
20319;DHT22;10317;47.254;11.314;2023-10-19T08:05:15;14.30;98.30
20319;DHT22;10317;47.254;11.314;2023-10-19T08:07:41;14.30;98.30
20319;DHT22;10317;47.254;11.314;2023-10-19T08:10:14;14.50;98.60
20319;DHT22;10317;47.254;11.314;2023-10-19T08:12:42;15.00;96.50
20319;DHT22;10317;47.254;11.314;2023-10-19T08:15:11;15.70;98.30
20319;DHT22;10317;47.254;11.314;2023-10-19T08:17:38;16.70;98.10
20319;DHT22;10317;47.254;11.314;2023-10-19T08:20:10;17.80;93.80
20319;DHT22;10317;47.254;11.314;2023-10-19T08:22:42;18.50;91.20
20319;DHT22;10317;47.254;11.314;2023-10-19T08:25:08;18.70;91.30
20319;DHT22;10317;47.254;11.314;2023-10-19T08:27:39;18.90;90.40
20319;DHT22;10317;47.254;11.314;2023-10-19T08:30:06;19.00;87.00
20319;DHT22;10317;47.254;11.314;2023-10-19T08:32:34;19.00;87.80
20319;DHT22;10317;47.254;11.314;2023-10-19T08:35:02;19.90;87.00
20319;DHT22;10317;47.254;11.314;2023-10-19T08:37:27;20.50;85.90
20319;DHT22;10317;47.254;11.314;2023-10-19T08:39:54;20.40;81.10
20319;DHT22;10317;47.254;11.314;2023-10-19T08:42:19;20.10;78.80
20319;DHT22;10317;47.254;11.314;2023-10-19T08:44:46;19.60;79.50
20319;DHT22;10317;47.254;11.314;2023-10-19T08:47:12;19.80;80.70
20319;DHT22;10317;47.254;11.314;2023-10-19T08:49:37;20.30;81.70
20319;DHT22;10317;47.254;11.314;2023-10-19T08:52:05;20.20;80.90
20319;DHT22;10317;47.254;11.314;2023-10-19T08:54:32;19.90;78.50
20319;DHT22;10317;47.254;11.314;2023-10-19T08:56:59;19.60;78.40
20319;DHT22;10317;47.254;11.314;2023-10-19T08:59:25;19.50;78.90
20319;DHT22;10317;47.254;11.314;2023-10-19T09:02:00;20.90;80.20
20319;DHT22;10317;47.254;11.314;2023-10-19T09:04:26;23.80;76.10
20319;DHT22;10317;47.254;11.314;2023-10-19T09:06:54;24.00;67.20
20319;DHT22;10317;47.254;11.314;2023-10-19T09:09:20;23.40;66.70
20319;DHT22;10317;47.254;11.314;2023-10-19T09:11:47;24.00;64.60
20319;DHT22;10317;47.254;11.314;2023-10-19T09:14:14;24.30;62.90
20319;DHT22;10317;47.254;11.314;2023-10-19T09:16:56;24.60;66.00
20319;DHT22;10317;47.254;11.314;2023-10-19T09:19:43;25.70;61.80
20319;DHT22;10317;47.254;11.314;2023-10-19T09:22:10;26.10;62.40
20319;DHT22;10317;47.254;11.314;2023-10-19T09:24:45;29.50;54.90
20319;DHT22;10317;47.254;11.314;2023-10-19T09:27:11;32.20;54.40
20319;DHT22;10317;47.254;11.314;2023-10-19T09:29:38;33.10;51.70
20319;DHT22;10317;47.254;11.314;2023-10-19T09:32:07;33.10;45.60
20319;DHT22;10317;47.254;11.314;2023-10-19T09:34:34;33.10;46.20
20319;DHT22;10317;47.254;11.314;2023-10-19T09:37:00;31.50;44.80
20319;DHT22;10317;47.254;11.314;2023-10-19T09:39:32;29.20;46.90
20319;DHT22;10317;47.254;11.314;2023-10-19T09:42:02;27.10;48.00
20319;DHT22;10317;47.254;11.314;2023-10-19T09:44:39;25.00;50.70
20319;DHT22;10317;47.254;11.314;2023-10-19T09:47:11;23.40;54.60
20319;DHT22;10317;47.254;11.314;2023-10-19T09:49:39;22.20;58.80
20319;DHT22;10317;47.254;11.314;2023-10-19T09:52:06;21.40;58.40
20319;DHT22;10317;47.254;11.314;2023-10-19T09:57:12;20.10;61.10
20319;DHT22;10317;47.254;11.314;2023-10-19T09:59:45;19.90;63.80
20319;DHT22;10317;47.254;11.314;2023-10-19T10:02:15;20.70;64.80
20319;DHT22;10317;47.254;11.314;2023-10-19T10:04:44;23.10;61.10
20319;DHT22;10317;47.254;11.314;2023-10-19T10:07:15;24.70;59.30
20319;DHT22;10317;47.254;11.314;2023-10-19T10:09:43;26.20;56.60
20319;DHT22;10317;47.254;11.314;2023-10-19T10:12:35;27.30;52.50
20319;DHT22;10317;47.254;11.314;2023-10-19T10:15:05;31.10;50.30
20319;DHT22;10317;47.254;11.314;2023-10-19T10:17:36;33.60;46.20
20319;DHT22;10317;47.254;11.314;2023-10-19T10:22:41;32.10;46.20
20319;DHT22;10317;47.254;11.314;2023-10-19T10:25:25;30.70;44.80
20319;DHT22;10317;47.254;11.314;2023-10-19T10:27:53;28.90;46.20
20319;DHT22;10317;47.254;11.314;2023-10-19T10:30:19;27.60;48.60
20319;DHT22;10317;47.254;11.314;2023-10-19T10:32:46;26.90;50.10
20319;DHT22;10317;47.254;11.314;2023-10-19T10:35:54;25.80;52.70
20319;DHT22;10317;47.254;11.314;2023-10-19T10:38:19;24.80;53.90
20319;DHT22;10317;47.254;11.314;2023-10-19T10:40:46;24.10;56.40
20319;DHT22;10317;47.254;11.314;2023-10-19T10:43:13;24.10;56.50
20319;DHT22;10317;47.254;11.314;2023-10-19T10:45:38;25.00;55.90
20319;DHT22;10317;47.254;11.314;2023-10-19T10:48:11;28.60;53.10
20319;DHT22;10317;47.254;11.314;2023-10-19T10:50:37;32.00;49.30
20319;DHT22;10317;47.254;11.314;2023-10-19T10:53:05;34.40;47.60
20319;DHT22;10317;47.254;11.314;2023-10-19T10:55:31;35.50;44.40
20319;DHT22;10317;47.254;11.314;2023-10-19T10:57:58;36.50;41.80
20319;DHT22;10317;47.254;11.314;2023-10-19T11:00:25;36.80;40.40
20319;DHT22;10317;47.254;11.314;2023-10-19T11:03:02;37.00;40.50
20319;DHT22;10317;47.254;11.314;2023-10-19T11:05:30;36.30;38.80
20319;DHT22;10317;47.254;11.314;2023-10-19T11:08:06;36.00;39.70
20319;DHT22;10317;47.254;11.314;2023-10-19T11:10:33;35.60;39.90
20319;DHT22;10317;47.254;11.314;2023-10-19T11:13:07;35.50;40.20
20319;DHT22;10317;47.254;11.314;2023-10-19T11:15:37;35.30;41.30
20319;DHT22;10317;47.254;11.314;2023-10-19T11:18:04;35.40;41.00
20319;DHT22;10317;47.254;11.314;2023-10-19T11:20:29;35.30;41.30
20319;DHT22;10317;47.254;11.314;2023-10-19T11:22:56;35.00;41.40
20319;DHT22;10317;47.254;11.314;2023-10-19T11:25:27;34.60;41.50
20319;DHT22;10317;47.254;11.314;2023-10-19T11:27:54;34.50;41.60
20319;DHT22;10317;47.254;11.314;2023-10-19T11:30:25;34.20;41.20
20319;DHT22;10317;47.254;11.314;2023-10-19T11:32:51;34.00;41.60
20319;DHT22;10317;47.254;11.314;2023-10-19T11:35:24;33.40;41.30
20319;DHT22;10317;47.254;11.314;2023-10-19T11:37:51;33.30;42.30
20319;DHT22;10317;47.254;11.314;2023-10-19T11:40:19;33.30;41.60
20319;DHT22;10317;47.254;11.314;2023-10-19T11:42:45;33.10;42.40
20319;DHT22;10317;47.254;11.314;2023-10-19T11:45:11;32.90;42.60
20319;DHT22;10317;47.254;11.314;2023-10-19T11:47:39;32.60;43.90
20319;DHT22;10317;47.254;11.314;2023-10-19T11:50:05;32.60;43.40
20319;DHT22;10317;47.254;11.314;2023-10-19T11:52:31;32.50;43.40
20319;DHT22;10317;47.254;11.314;2023-10-19T11:54:58;32.40;42.70
20319;DHT22;10317;47.254;11.314;2023-10-19T11:57:24;32.30;42.90
20319;DHT22;10317;47.254;11.314;2023-10-19T11:59:51;32.10;42.80
20319;DHT22;10317;47.254;11.314;2023-10-19T12:02:20;31.60;43.30
20319;DHT22;10317;47.254;11.314;2023-10-19T12:04:46;31.50;43.60
20319;DHT22;10317;47.254;11.314;2023-10-19T12:07:12;31.60;44.10
20319;DHT22;10317;47.254;11.314;2023-10-19T12:09:38;31.50;44.20
20319;DHT22;10317;47.254;11.314;2023-10-19T12:12:07;31.20;43.40
20319;DHT22;10317;47.254;11.314;2023-10-19T12:14:37;30.70;44.30
20319;DHT22;10317;47.254;11.314;2023-10-19T12:17:03;30.20;44.90
20319;DHT22;10317;47.254;11.314;2023-10-19T12:19:31;29.50;45.30
20319;DHT22;10317;47.254;11.314;2023-10-19T12:22:00;29.10;46.40
20319;DHT22;10317;47.254;11.314;2023-10-19T12:24:26;29.00;47.00
20319;DHT22;10317;47.254;11.314;2023-10-19T12:26:54;28.60;47.00
20319;DHT22;10317;47.254;11.314;2023-10-19T12:29:20;28.40;47.40
20319;DHT22;10317;47.254;11.314;2023-10-19T12:31:49;28.30;47.80
20319;DHT22;10317;47.254;11.314;2023-10-19T12:34:15;28.40;48.30
20319;DHT22;10317;47.254;11.314;2023-10-19T12:36:42;28.50;47.50
20319;DHT22;10317;47.254;11.314;2023-10-19T12:39:10;28.70;48.10
20319;DHT22;10317;47.254;11.314;2023-10-19T12:41:41;28.70;47.50
20319;DHT22;10317;47.254;11.314;2023-10-19T12:44:07;28.10;47.80
20319;DHT22;10317;47.254;11.314;2023-10-19T12:46:37;27.70;48.20
20319;DHT22;10317;47.254;11.314;2023-10-19T12:49:06;27.30;48.70
20319;DHT22;10317;47.254;11.314;2023-10-19T12:51:39;26.90;49.00
20319;DHT22;10317;47.254;11.314;2023-10-19T12:54:07;26.60;49.50
20319;DHT22;10317;47.254;11.314;2023-10-19T12:56:35;26.30;50.30
20319;DHT22;10317;47.254;11.314;2023-10-19T12:59:01;26.00;50.50
20319;DHT22;10317;47.254;11.314;2023-10-19T13:01:27;25.70;51.30
20319;DHT22;10317;47.254;11.314;2023-10-19T13:03:53;25.50;51.50
20319;DHT22;10317;47.254;11.314;2023-10-19T13:06:19;25.30;52.60
20319;DHT22;10317;47.254;11.314;2023-10-19T13:08:45;25.20;51.90
20319;DHT22;10317;47.254;11.314;2023-10-19T13:11:11;24.90;52.30
20319;DHT22;10317;47.254;11.314;2023-10-19T13:13:40;24.60;53.20
20319;DHT22;10317;47.254;11.314;2023-10-19T13:16:05;24.40;53.10
20319;DHT22;10317;47.254;11.314;2023-10-19T13:18:35;24.10;54.00
20319;DHT22;10317;47.254;11.314;2023-10-19T13:21:01;23.70;54.70
20319;DHT22;10317;47.254;11.314;2023-10-19T13:23:37;23.50;55.00
20319;DHT22;10317;47.254;11.314;2023-10-19T13:26:03;23.40;55.00
20319;DHT22;10317;47.254;11.314;2023-10-19T13:28:43;23.30;55.50
20319;DHT22;10317;47.254;11.314;2023-10-19T13:31:09;23.30;55.90
20319;DHT22;10317;47.254;11.314;2023-10-19T13:33:34;23.70;55.80
20319;DHT22;10317;47.254;11.314;2023-10-19T13:36:00;24.10;55.30
20319;DHT22;10317;47.254;11.314;2023-10-19T13:38:26;24.50;54.80
20319;DHT22;10317;47.254;11.314;2023-10-19T13:40:52;24.80;54.40
20319;DHT22;10317;47.254;11.314;2023-10-19T13:43:19;24.80;54.10
20319;DHT22;10317;47.254;11.314;2023-10-19T13:45:46;24.60;54.00
20319;DHT22;10317;47.254;11.314;2023-10-19T13:48:13;24.30;54.10
20319;DHT22;10317;47.254;11.314;2023-10-19T13:50:46;24.00;55.40
20319;DHT22;10317;47.254;11.314;2023-10-19T13:53:14;23.80;55.40
20319;DHT22;10317;47.254;11.314;2023-10-19T13:55:41;23.60;55.90
20319;DHT22;10317;47.254;11.314;2023-10-19T13:58:06;23.40;56.10
20319;DHT22;10317;47.254;11.314;2023-10-19T14:00:32;23.30;56.10
20319;DHT22;10317;47.254;11.314;2023-10-19T14:03:04;23.20;56.20
20319;DHT22;10317;47.254;11.314;2023-10-19T14:05:45;23.10;57.00
20319;DHT22;10317;47.254;11.314;2023-10-19T14:08:14;23.00;57.60
20319;DHT22;10317;47.254;11.314;2023-10-19T14:10:41;23.00;58.20
20319;DHT22;10317;47.254;11.314;2023-10-19T14:13:07;23.20;57.50
20319;DHT22;10317;47.254;11.314;2023-10-19T14:15:33;23.30;57.80
20319;DHT22;10317;47.254;11.314;2023-10-19T14:18:00;23.40;57.40
20319;DHT22;10317;47.254;11.314;2023-10-19T14:20:29;23.30;57.40
20319;DHT22;10317;47.254;11.314;2023-10-19T14:22:55;23.20;57.50
20319;DHT22;10317;47.254;11.314;2023-10-19T14:25:21;23.10;58.10
20319;DHT22;10317;47.254;11.314;2023-10-19T14:27:50;23.10;58.40
20319;DHT22;10317;47.254;11.314;2023-10-19T14:30:18;22.90;58.40
20319;DHT22;10317;47.254;11.314;2023-10-19T14:32:45;22.80;58.40
20319;DHT22;10317;47.254;11.314;2023-10-19T14:35:15;22.70;58.70
20319;DHT22;10317;47.254;11.314;2023-10-19T14:37:43;22.60;59.00
20319;DHT22;10317;47.254;11.314;2023-10-19T14:40:15;22.40;59.10
20319;DHT22;10317;47.254;11.314;2023-10-19T14:42:44;22.50;59.30
20319;DHT22;10317;47.254;11.314;2023-10-19T14:45:11;22.50;62.30
20319;DHT22;10317;47.254;11.314;2023-10-19T14:47:40;22.40;62.30
20319;DHT22;10317;47.254;11.314;2023-10-19T14:50:10;22.20;63.70
20319;DHT22;10317;47.254;11.314;2023-10-19T14:52:37;22.00;63.80
20319;DHT22;10317;47.254;11.314;2023-10-19T14:55:05;21.80;64.10
20319;DHT22;10317;47.254;11.314;2023-10-19T14:57:33;21.70;64.30
20319;DHT22;10317;47.254;11.314;2023-10-19T14:59:58;21.80;64.50
20319;DHT22;10317;47.254;11.314;2023-10-19T15:02:35;21.90;63.30
20319;DHT22;10317;47.254;11.314;2023-10-19T15:05:01;22.00;62.30
20319;DHT22;10317;47.254;11.314;2023-10-19T15:07:29;22.10;61.50
20319;DHT22;10317;47.254;11.314;2023-10-19T15:09:55;22.10;61.80
20319;DHT22;10317;47.254;11.314;2023-10-19T15:12:21;22.00;62.00
20319;DHT22;10317;47.254;11.314;2023-10-19T15:14:46;21.90;62.10
20319;DHT22;10317;47.254;11.314;2023-10-19T15:17:12;21.90;63.10
20319;DHT22;10317;47.254;11.314;2023-10-19T15:19:37;21.70;62.10
20319;DHT22;10317;47.254;11.314;2023-10-19T15:22:03;21.60;62.50
20319;DHT22;10317;47.254;11.314;2023-10-19T15:24:29;21.50;62.80
20319;DHT22;10317;47.254;11.314;2023-10-19T15:26:55;21.30;63.30
20319;DHT22;10317;47.254;11.314;2023-10-19T15:29:21;21.10;63.10
20319;DHT22;10317;47.254;11.314;2023-10-19T15:31:47;20.90;63.80
20319;DHT22;10317;47.254;11.314;2023-10-19T15:34:13;20.80;64.20
20319;DHT22;10317;47.254;11.314;2023-10-19T15:36:40;20.70;64.10
20319;DHT22;10317;47.254;11.314;2023-10-19T15:39:06;20.60;64.50
20319;DHT22;10317;47.254;11.314;2023-10-19T15:41:36;20.40;64.90